createdAt,value
2023-03-16T00:00:15.032Z,100309.84
2023-03-16T00:02:43.849Z,100318.09
2023-03-16T00:05:13.213Z,100316.25
2023-03-16T00:07:43.934Z,100310.00
2023-03-16T00:10:12.771Z,100312.56
2023-03-16T00:12:59.099Z,100305.69
2023-03-16T00:15:28.174Z,100309.91
2023-03-16T00:17:56.897Z,100305.03
2023-03-16T00:20:25.636Z,100308.78
2023-03-16T00:22:53.794Z,100312.38
2023-03-16T00:25:21.638Z,100311.44
2023-03-16T00:27:50.293Z,100302.91
2023-03-16T00:30:18.380Z,100302.13
2023-03-16T00:32:47.206Z,100290.56
2023-03-16T00:35:19.071Z,100314.72
2023-03-16T00:37:47.480Z,100317.63
2023-03-16T00:40:17.105Z,100310.97
2023-03-16T00:42:45.650Z,100304.66
2023-03-16T00:45:18.198Z,100315.28
2023-03-16T00:47:46.846Z,100319.03
2023-03-16T00:50:16.098Z,100313.97
2023-03-16T00:52:45.260Z,100306.19
2023-03-16T00:55:14.072Z,100314.16
2023-03-16T00:57:45.143Z,100309.09
2023-03-16T01:00:16.302Z,100309.25
2023-03-16T01:02:45.768Z,100309.94
2023-03-16T01:05:42.589Z,100306.00
2023-03-16T01:08:10.592Z,100307.84
2023-03-16T01:10:38.421Z,100309.34
2023-03-16T01:13:07.978Z,100300.72
2023-03-16T01:15:36.452Z,100297.00
2023-03-16T01:18:06.749Z,100292.78
2023-03-16T01:20:36.019Z,100287.06
2023-03-16T01:23:03.854Z,100294.38
2023-03-16T01:25:33.559Z,100295.94
2023-03-16T01:28:02.133Z,100298.56
2023-03-16T01:30:33.082Z,100297.16
2023-03-16T01:33:02.477Z,100305.81
2023-03-16T01:35:34.337Z,100292.41
2023-03-16T01:38:02.573Z,100299.44
2023-03-16T01:40:32.929Z,100300.28
2023-03-16T01:43:02.850Z,100292.75
2023-03-16T01:46:05.094Z,100303.38
2023-03-16T01:48:49.335Z,100300.16
2023-03-16T01:51:48.315Z,100303.16
2023-03-16T01:54:23.311Z,100303.53
2023-03-16T01:57:07.045Z,100305.25
2023-03-16T01:59:58.188Z,100297.72
2023-03-16T02:02:27.930Z,100306.75
2023-03-16T02:05:13.800Z,100306.53
2023-03-16T02:07:49.678Z,100306.38
2023-03-16T02:10:19.201Z,100314.16
2023-03-16T02:12:47.375Z,100315.66
2023-03-16T02:15:15.685Z,100316.22
2023-03-16T02:17:47.530Z,100311.31
2023-03-16T02:20:31.318Z,100316.50
2023-03-16T02:22:59.285Z,100312.28
2023-03-16T02:25:32.435Z,100313.78
2023-03-16T02:28:03.704Z,100312.06
2023-03-16T02:30:33.462Z,100311.59
2023-03-16T02:33:05.537Z,100315.44
2023-03-16T02:35:33.826Z,100318.38
2023-03-16T02:38:03.494Z,100321.75
2023-03-16T02:40:35.755Z,100309.09
2023-03-16T02:43:11.950Z,100310.03
2023-03-16T02:45:51.539Z,100314.81
2023-03-16T02:48:35.930Z,100308.16
2023-03-16T02:51:04.958Z,100302.22
2023-03-16T02:53:33.841Z,100298.56
2023-03-16T02:56:03.488Z,100294.56
2023-03-16T02:58:36.538Z,100295.94
2023-03-16T03:01:09.751Z,100286.84
2023-03-16T03:03:37.785Z,100282.63
2023-03-16T03:06:06.440Z,100284.13
2023-03-16T03:08:37.180Z,100277.19
2023-03-16T03:11:05.325Z,100272.69
2023-03-16T03:13:36.690Z,100264.44
2023-03-16T03:16:06.259Z,100256.63
2023-03-16T03:18:35.358Z,100259.72
2023-03-16T03:21:07.450Z,100250.28
2023-03-16T03:23:36.629Z,100255.72
2023-03-16T03:26:04.665Z,100260.31
2023-03-16T03:28:34.478Z,100261.81
2023-03-16T03:31:03.361Z,100260.38
2023-03-16T03:33:35.356Z,100256.72
2023-03-16T03:36:05.251Z,100269.19
2023-03-16T03:38:38.099Z,100271.38
2023-03-16T03:41:08.361Z,100256.56
2023-03-16T03:43:40.152Z,100253.06
2023-03-16T03:46:19.404Z,100258.72
2023-03-16T03:48:47.510Z,100258.06
2023-03-16T03:51:15.450Z,100252.69
2023-03-16T03:53:47.418Z,100253.56
2023-03-16T03:56:22.362Z,100255.06
2023-03-16T03:58:51.127Z,100256.28
2023-03-16T04:01:42.442Z,100259.34
2023-03-16T04:04:11.544Z,100266.50
2023-03-16T04:06:40.485Z,100258.63
2023-03-16T04:09:09.273Z,100261.16
2023-03-16T04:11:38.288Z,100264.31
2023-03-16T04:14:07.057Z,100269.22
2023-03-16T04:16:36.147Z,100266.09
2023-03-16T04:19:05.330Z,100267.25
2023-03-16T04:21:34.328Z,100264.25
2023-03-16T04:24:10.479Z,100269.38
2023-03-16T04:26:40.229Z,100272.31
2023-03-16T04:29:08.027Z,100271.25
2023-03-16T04:31:36.692Z,100270.63
2023-03-16T04:34:05.549Z,100280.75
2023-03-16T04:36:35.175Z,100280.19
2023-03-16T04:39:05.093Z,100284.41
2023-03-16T04:41:33.633Z,100283.38
2023-03-16T04:44:15.109Z,100289.94
2023-03-16T04:46:44.181Z,100283.28
2023-03-16T04:49:14.413Z,100287.50
2023-03-16T04:51:46.469Z,100292.16
2023-03-16T04:54:18.795Z,100296.50
2023-03-16T04:56:48.358Z,100290.09
2023-03-16T04:59:32.454Z,100298.94
2023-03-16T05:02:21.417Z,100297.63
2023-03-16T05:05:11.541Z,100298.53
2023-03-16T05:07:48.272Z,100307.50
2023-03-16T05:10:19.177Z,100307.13
2023-03-16T05:12:48.229Z,100304.56
2023-03-16T05:15:22.149Z,100310.50
2023-03-16T05:18:13.648Z,100305.88
2023-03-16T05:20:45.748Z,100308.88
2023-03-16T05:23:17.142Z,100310.84
2023-03-16T05:25:49.488Z,100306.34
2023-03-16T05:28:22.327Z,100300.81
2023-03-16T05:30:57.217Z,100301.19
2023-03-16T05:33:33.801Z,100296.13
2023-03-16T05:36:08.258Z,100297.41
2023-03-16T05:38:39.601Z,100297.34
2023-03-16T05:41:11.395Z,100294.69
2023-03-16T05:43:59.712Z,100290.88
2023-03-16T05:46:37.471Z,100282.34
2023-03-16T05:49:07.376Z,100282.34
2023-03-16T05:51:35.769Z,100275.34
2023-03-16T05:54:06.798Z,100272.41
2023-03-16T05:56:44.494Z,100273.91
2023-03-16T05:59:13.669Z,100269.34
2023-03-16T06:02:22.594Z,100277.28
2023-03-16T06:04:51.793Z,100289.06
2023-03-16T06:07:21.320Z,100293.41
2023-03-16T06:09:51.462Z,100299.31
2023-03-16T06:12:21.246Z,100301.91
2023-03-16T06:14:50.293Z,100294.25
2023-03-16T06:17:23.212Z,100293.38
2023-03-16T06:19:53.262Z,100298.50
2023-03-16T06:22:21.381Z,100304.81
2023-03-16T06:24:56.185Z,100298.50
2023-03-16T06:27:28.974Z,100306.63
2023-03-16T06:30:13.684Z,100304.09
2023-03-16T06:32:42.970Z,100299.66
2023-03-16T06:35:10.824Z,100299.28
2023-03-16T06:37:42.840Z,100296.63
2023-03-16T06:40:24.014Z,100298.09
2023-03-16T06:42:54.989Z,100299.47
2023-03-16T06:45:26.029Z,100298.88
2023-03-16T06:47:57.002Z,100299.66
2023-03-16T06:50:25.503Z,100298.88
2023-03-16T06:52:53.739Z,100297.25
2023-03-16T06:55:27.861Z,100303.97
2023-03-16T06:57:56.578Z,100304.06
2023-03-16T07:00:26.679Z,100300.50
2023-03-16T07:02:54.973Z,100293.28
2023-03-16T07:05:23.113Z,100294.53
2023-03-16T07:07:55.076Z,100290.59
2023-03-16T07:10:23.585Z,100290.25
2023-03-16T07:12:51.857Z,100291.16
2023-03-16T07:15:21.331Z,100296.22
2023-03-16T07:17:50.099Z,100293.59
2023-03-16T07:20:18.251Z,100293.25
2023-03-16T07:22:46.628Z,100300.22
2023-03-16T07:25:15.984Z,100294.22
2023-03-16T07:27:49.672Z,100287.69
2023-03-16T07:30:26.176Z,100295.25
2023-03-16T07:32:55.327Z,100296.72
2023-03-16T07:35:26.982Z,100295.97
2023-03-16T07:37:56.185Z,100304.69
2023-03-16T07:40:27.196Z,100296.75
2023-03-16T07:43:01.814Z,100294.13
2023-03-16T07:45:36.478Z,100298.97
2023-03-16T07:48:07.717Z,100293.72
2023-03-16T07:50:49.367Z,100305.13
2023-03-16T07:53:24.121Z,100297.25
2023-03-16T07:56:02.503Z,100300.53
2023-03-16T07:58:33.594Z,100295.81
2023-03-16T08:01:02.036Z,100301.94
2023-03-16T08:03:30.333Z,100296.31
2023-03-16T08:06:05.876Z,100297.94
2023-03-16T08:08:35.033Z,100302.34
2023-03-16T08:11:03.470Z,100302.59
2023-03-16T08:13:44.748Z,100294.34
2023-03-16T08:16:14.372Z,100300.44
2023-03-16T08:18:46.480Z,100293.91
2023-03-16T08:21:17.618Z,100298.13
2023-03-16T08:23:52.405Z,100292.72
2023-03-16T08:26:23.836Z,100297.34
2023-03-16T08:28:59.144Z,100290.53
2023-03-16T08:31:45.937Z,100302.78
2023-03-16T08:34:22.652Z,100299.22
2023-03-16T08:36:50.865Z,100299.59
2023-03-16T08:39:20.788Z,100306.31
2023-03-16T08:41:50.189Z,100297.56
2023-03-16T08:44:26.548Z,100307.28
2023-03-16T08:46:56.952Z,100310.22
2023-03-16T08:49:25.911Z,100315.06
2023-03-16T08:52:03.756Z,100298.13
2023-03-16T08:54:33.012Z,100306.25
2023-03-16T08:57:06.256Z,100317.56
2023-03-16T08:59:34.744Z,100322.31
2023-03-16T09:02:04.823Z,100322.56
2023-03-16T09:04:33.848Z,100320.06
2023-03-16T09:07:08.955Z,100333.09
2023-03-16T09:09:38.242Z,100325.31
2023-03-16T09:12:08.728Z,100329.66
2023-03-16T09:14:38.803Z,100324.66
2023-03-16T09:17:12.080Z,100329.56
2023-03-16T09:19:51.090Z,100324.16
2023-03-16T09:22:21.021Z,100327.94
2023-03-16T09:24:50.006Z,100329.00
2023-03-16T09:27:18.732Z,100328.41
2023-03-16T09:29:50.037Z,100333.28
2023-03-16T09:32:20.397Z,100330.75
2023-03-16T09:34:48.295Z,100327.78
2023-03-16T09:37:27.806Z,100329.44
2023-03-16T09:40:03.199Z,100329.63
2023-03-16T09:42:36.904Z,100331.34
2023-03-16T09:45:23.594Z,100321.47
2023-03-16T09:47:51.719Z,100328.25
2023-03-16T09:50:47.733Z,100323.78
2023-03-16T09:53:25.625Z,100321.28
2023-03-16T09:56:18.764Z,100317.75
2023-03-16T09:58:47.249Z,100322.19
2023-03-16T10:01:19.167Z,100314.19
2023-03-16T10:03:50.405Z,100314.41
2023-03-16T10:06:18.426Z,100317.97
2023-03-16T10:08:53.649Z,100320.72
2023-03-16T10:11:33.366Z,100323.66
2023-03-16T10:14:18.231Z,100324.94
2023-03-16T10:17:01.675Z,100325.28
2023-03-16T10:19:42.716Z,100327.84
2023-03-16T10:22:26.837Z,100322.38
2023-03-16T10:25:07.596Z,100329.28
2023-03-16T10:27:37.423Z,100331.38
2023-03-16T10:30:19.184Z,100329.56
2023-03-16T10:32:47.535Z,100328.50
2023-03-16T10:35:40.892Z,100324.28
2023-03-16T10:38:48.601Z,100323.47
2023-03-16T10:41:23.026Z,100320.09
2023-03-16T10:43:53.228Z,100318.91
2023-03-16T10:46:21.472Z,100311.56
2023-03-16T10:49:00.574Z,100306.91
2023-03-16T10:51:33.412Z,100307.56
2023-03-16T10:54:18.085Z,100307.28
2023-03-16T10:56:46.568Z,100310.34
2023-03-16T10:59:34.706Z,100306.84
2023-03-16T11:02:04.388Z,100296.75
2023-03-16T11:04:34.103Z,100296.16
2023-03-16T11:07:03.006Z,100292.53
2023-03-16T11:09:33.537Z,100301.72
2023-03-16T11:12:18.226Z,100296.94
2023-03-16T11:14:52.783Z,100294.53
2023-03-16T11:17:50.116Z,100294.56
2023-03-16T11:20:22.266Z,100294.75
2023-03-16T11:22:53.755Z,100309.00
2023-03-16T11:25:29.838Z,100291.34
2023-03-16T11:28:13.411Z,100290.66
2023-03-16T11:30:45.025Z,100299.41
2023-03-16T11:33:15.858Z,100307.81
2023-03-16T11:36:30.221Z,100304.88
2023-03-16T11:39:10.142Z,100296.72
2023-03-16T11:42:16.913Z,100302.81
2023-03-16T11:45:20.041Z,100297.31
2023-03-16T11:47:58.668Z,100290.81
2023-03-16T11:50:37.984Z,100284.44
2023-03-16T11:53:29.778Z,100288.84
2023-03-16T11:56:19.165Z,100296.53
2023-03-16T11:59:18.421Z,100278.09
2023-03-16T12:02:00.913Z,100284.97
2023-03-16T12:04:47.688Z,100277.84
2023-03-16T12:07:22.259Z,100279.91
2023-03-16T12:09:53.485Z,100290.50
2023-03-16T12:12:38.056Z,100288.53
2023-03-16T12:15:28.354Z,100281.13
2023-03-16T12:18:03.055Z,100289.41
2023-03-16T12:20:36.061Z,100289.91
2023-03-16T12:23:15.504Z,100290.38
2023-03-16T12:25:46.408Z,100294.00
2023-03-16T12:28:19.510Z,100304.47
2023-03-16T12:31:05.208Z,100300.09
2023-03-16T12:33:48.984Z,100304.97
2023-03-16T12:36:19.830Z,100309.78
2023-03-16T12:38:57.334Z,100298.00
2023-03-16T12:41:54.880Z,100299.72
2023-03-16T12:44:57.686Z,100304.19
2023-03-16T12:47:59.350Z,100301.56
2023-03-16T12:50:27.908Z,100303.06
2023-03-16T12:52:56.161Z,100311.66
2023-03-16T12:55:35.153Z,100311.09
2023-03-16T12:58:06.667Z,100314.47
2023-03-16T13:00:37.844Z,100308.16
2023-03-16T13:03:06.986Z,100315.97
2023-03-16T13:05:36.625Z,100314.06
2023-03-16T13:08:10.976Z,100315.81
2023-03-16T13:10:40.120Z,100318.38
2023-03-16T13:13:16.443Z,100320.47
2023-03-16T13:15:47.699Z,100324.50
2023-03-16T13:18:20.313Z,100319.63
2023-03-16T13:20:48.576Z,100319.25
2023-03-16T13:23:19.193Z,100322.56
2023-03-16T13:26:28.609Z,100323.16
2023-03-16T13:28:56.917Z,100326.31
2023-03-16T13:31:27.667Z,100328.69
2023-03-16T13:33:57.151Z,100334.59
2023-03-16T13:36:31.078Z,100346.59
2023-03-16T13:39:14.366Z,100348.91
2023-03-16T13:41:43.935Z,100346.34
2023-03-16T13:44:15.757Z,100352.22
2023-03-16T13:46:50.004Z,100350.09
2023-03-16T13:49:18.742Z,100360.22
2023-03-16T13:51:47.540Z,100361.25
2023-03-16T13:54:31.033Z,100362.31
2023-03-16T13:57:00.576Z,100361.03
2023-03-16T13:59:28.540Z,100366.75
2023-03-16T14:01:59.059Z,100370.72
2023-03-16T14:04:29.813Z,100375.34
2023-03-16T14:07:00.752Z,100378.94
2023-03-16T14:09:30.990Z,100388.25
2023-03-16T14:11:59.072Z,100390.78
2023-03-16T14:14:39.824Z,100385.69
2023-03-16T14:17:34.538Z,100379.19
2023-03-16T14:20:12.036Z,100376.88
2023-03-16T14:22:41.144Z,100386.16
2023-03-16T14:25:12.220Z,100391.22
2023-03-16T14:27:41.414Z,100392.50
2023-03-16T14:30:27.287Z,100387.63
2023-03-16T14:33:07.039Z,100392.09
2023-03-16T14:35:47.200Z,100385.75
2023-03-16T14:38:38.356Z,100382.38
2023-03-16T14:41:26.871Z,100395.91
2023-03-16T14:43:56.586Z,100390.41
2023-03-16T14:46:29.744Z,100396.31
2023-03-16T14:49:01.977Z,100392.75
2023-03-16T14:51:34.419Z,100398.22
2023-03-16T14:54:03.105Z,100412.97
2023-03-16T14:56:37.813Z,100420.94
2023-03-16T14:59:09.378Z,100424.53
2023-03-16T15:01:38.380Z,100430.69
2023-03-16T15:04:07.811Z,100435.72
2023-03-16T15:06:36.835Z,100432.16
2023-03-16T15:09:05.078Z,100431.72
2023-03-16T15:11:35.242Z,100437.63
2023-03-16T15:14:15.185Z,100442.69
2023-03-16T15:16:43.525Z,100441.44
2023-03-16T15:19:12.158Z,100432.34
2023-03-16T15:21:40.874Z,100432.56
2023-03-16T15:24:12.319Z,100436.38
2023-03-16T15:26:41.609Z,100441.41
2023-03-16T15:29:10.955Z,100438.88
2023-03-16T15:31:39.613Z,100451.09
2023-03-16T15:34:07.569Z,100446.63
2023-03-16T15:36:36.116Z,100458.41
2023-03-16T15:39:04.743Z,100454.41
2023-03-16T15:41:46.760Z,100457.78
2023-03-16T15:44:16.216Z,100457.97
2023-03-16T15:46:45.746Z,100457.13
2023-03-16T15:49:14.337Z,100453.03
2023-03-16T15:51:43.590Z,100455.78
2023-03-16T15:54:12.520Z,100449.16
2023-03-16T15:56:53.171Z,100464.78
2023-03-16T15:59:27.461Z,100466.03
2023-03-16T16:01:56.277Z,100473.03
2023-03-16T16:04:26.396Z,100482.09
2023-03-16T16:06:55.993Z,100476.97
2023-03-16T16:09:25.873Z,100477.59
2023-03-16T16:11:53.864Z,100476.00
2023-03-16T16:14:25.123Z,100467.97
2023-03-16T16:16:54.990Z,100460.38
2023-03-16T16:19:23.845Z,100478.38
2023-03-16T16:21:55.465Z,100473.34
2023-03-16T16:24:23.901Z,100470.63
2023-03-16T16:26:55.351Z,100460.78
2023-03-16T16:29:27.113Z,100472.22
2023-03-16T16:31:55.686Z,100465.19
2023-03-16T16:34:25.941Z,100466.25
2023-03-16T16:36:56.324Z,100474.84
2023-03-16T16:39:24.767Z,100471.66
2023-03-16T16:41:57.142Z,100476.31
2023-03-16T16:44:27.534Z,100467.91
2023-03-16T16:46:59.853Z,100471.34
2023-03-16T16:49:30.658Z,100472.97
2023-03-16T16:51:58.593Z,100473.59
2023-03-16T16:54:28.568Z,100470.50
2023-03-16T16:56:57.373Z,100469.84
2023-03-16T16:59:34.851Z,100471.38
2023-03-16T17:02:03.333Z,100474.09
2023-03-16T17:04:32.233Z,100483.16
2023-03-16T17:07:03.631Z,100476.59
2023-03-16T17:09:31.927Z,100482.00
2023-03-16T17:12:01.925Z,100480.47
2023-03-16T17:14:34.163Z,100492.44
2023-03-16T17:17:08.619Z,100489.69
2023-03-16T17:19:36.524Z,100494.22
2023-03-16T17:22:07.349Z,100497.09
2023-03-16T17:24:37.691Z,100488.78
2023-03-16T17:27:06.270Z,100499.81
2023-03-16T17:29:34.382Z,100499.16
2023-03-16T17:32:05.435Z,100500.72
2023-03-16T17:34:34.057Z,100498.66
2023-03-16T17:37:03.919Z,100497.31
2023-03-16T17:39:35.270Z,100498.47
2023-03-16T17:42:06.555Z,100498.66
2023-03-16T17:44:40.573Z,100502.78
2023-03-16T17:47:39.796Z,100507.25
2023-03-16T17:50:25.669Z,100506.38
2023-03-16T17:52:54.840Z,100512.47
2023-03-16T17:55:26.211Z,100513.63
2023-03-16T17:57:55.679Z,100528.25
2023-03-16T18:00:27.104Z,100521.22
2023-03-16T18:03:07.277Z,100525.06
2023-03-16T18:05:36.779Z,100517.13
2023-03-16T18:08:20.839Z,100522.56
2023-03-16T18:10:53.468Z,100527.97
2023-03-16T18:13:33.559Z,100537.91
2023-03-16T18:16:07.756Z,100536.16
2023-03-16T18:18:39.780Z,100538.19
2023-03-16T18:21:20.167Z,100537.53
2023-03-16T18:23:48.425Z,100532.72
2023-03-16T18:26:20.013Z,100538.69
2023-03-16T18:28:50.821Z,100540.53
2023-03-16T18:31:22.231Z,100544.50
2023-03-16T18:33:51.646Z,100536.41
2023-03-16T18:36:21.116Z,100533.78
2023-03-16T18:38:54.167Z,100541.31
2023-03-16T18:41:23.137Z,100532.91
2023-03-16T18:43:52.295Z,100537.19
2023-03-16T18:46:31.136Z,100543.00
2023-03-16T18:49:01.696Z,100549.94
2023-03-16T18:51:35.673Z,100547.16
2023-03-16T18:54:05.011Z,100547.72
2023-03-16T18:56:33.693Z,100536.81
2023-03-16T18:59:02.540Z,100544.44
2023-03-16T19:01:31.375Z,100551.78
2023-03-16T19:04:00.890Z,100542.22
2023-03-16T19:06:34.159Z,100556.84
2023-03-16T19:09:26.844Z,100549.56
2023-03-16T19:11:57.785Z,100567.44
2023-03-16T19:14:33.334Z,100562.50
2023-03-16T19:17:05.710Z,100570.66
2023-03-16T19:19:34.290Z,100573.56
2023-03-16T19:22:14.074Z,100569.78
2023-03-16T19:24:51.677Z,100574.63
2023-03-16T19:27:26.605Z,100568.69
2023-03-16T19:29:58.579Z,100569.00
2023-03-16T19:32:26.877Z,100578.97
2023-03-16T19:34:59.719Z,100566.16
2023-03-16T19:37:30.414Z,100565.72
2023-03-16T19:40:01.345Z,100551.22
2023-03-16T19:42:30.380Z,100556.66
2023-03-16T19:44:58.210Z,100560.81
2023-03-16T19:47:31.238Z,100562.63
2023-03-16T19:49:59.427Z,100557.03
2023-03-16T19:52:28.710Z,100554.34
2023-03-16T19:54:58.044Z,100550.88
2023-03-16T19:57:25.898Z,100551.72
2023-03-16T19:59:58.331Z,100558.75
2023-03-16T20:02:27.385Z,100554.09
2023-03-16T20:04:56.105Z,100560.38
2023-03-16T20:07:25.325Z,100574.53
2023-03-16T20:09:54.259Z,100578.03
2023-03-16T20:12:25.189Z,100575.22
2023-03-16T20:14:55.902Z,100578.44
2023-03-16T20:17:25.600Z,100572.69
2023-03-16T20:19:53.575Z,100575.78
2023-03-16T20:22:23.294Z,100567.44
2023-03-16T20:24:53.406Z,100565.00
2023-03-16T20:27:23.254Z,100554.66
2023-03-16T20:29:52.062Z,100551.91
2023-03-16T20:32:21.308Z,100551.44
2023-03-16T20:34:51.584Z,100558.84
2023-03-16T20:37:28.012Z,100550.66
2023-03-16T20:39:57.390Z,100552.59
2023-03-16T20:42:32.440Z,100543.34
2023-03-16T20:45:01.946Z,100546.91
2023-03-16T20:47:31.814Z,100547.78
2023-03-16T20:50:01.410Z,100542.00
2023-03-16T20:52:31.117Z,100543.84
2023-03-16T20:55:00.003Z,100540.41
2023-03-16T20:57:30.341Z,100540.47
2023-03-16T20:59:58.496Z,100538.25
2023-03-16T21:02:27.915Z,100542.72
2023-03-16T21:04:56.943Z,100536.59
2023-03-16T21:07:25.354Z,100544.75
2023-03-16T21:09:54.090Z,100548.47
2023-03-16T21:12:36.199Z,100547.03
2023-03-16T21:15:15.552Z,100551.22
2023-03-16T21:17:46.709Z,100557.63
2023-03-16T21:20:17.781Z,100559.56
2023-03-16T21:22:46.422Z,100562.34
2023-03-16T21:25:19.992Z,100559.41
2023-03-16T21:27:50.041Z,100553.03
2023-03-16T21:30:28.804Z,100560.22
2023-03-16T21:33:00.247Z,100565.03
2023-03-16T21:35:36.191Z,100562.66
2023-03-16T21:38:17.786Z,100571.50
2023-03-16T21:40:46.241Z,100567.03
2023-03-16T21:43:14.470Z,100564.00
2023-03-16T21:45:42.427Z,100567.09
2023-03-16T21:48:35.061Z,100567.91
2023-03-16T21:51:03.356Z,100567.31
2023-03-16T21:53:33.783Z,100571.00
2023-03-16T21:56:03.762Z,100575.25
2023-03-16T21:58:31.783Z,100575.69
2023-03-16T22:01:00.413Z,100574.09
2023-03-16T22:03:47.690Z,100577.47
2023-03-16T22:06:18.624Z,100575.25
2023-03-16T22:08:46.863Z,100578.91
2023-03-16T22:11:21.415Z,100582.38
2023-03-16T22:13:49.882Z,100577.13
2023-03-16T22:16:19.914Z,100578.44
2023-03-16T22:18:52.379Z,100587.53
2023-03-16T22:21:39.704Z,100587.91
2023-03-16T22:24:26.273Z,100589.63
2023-03-16T22:26:54.691Z,100586.81
2023-03-16T22:29:26.728Z,100600.81
2023-03-16T22:32:00.009Z,100603.03
2023-03-16T22:34:47.538Z,100604.25
2023-03-16T22:37:21.734Z,100601.59
2023-03-16T22:39:50.039Z,100599.00
2023-03-16T22:42:36.148Z,100604.53
2023-03-16T22:45:15.765Z,100596.16
2023-03-16T22:47:50.109Z,100597.19
2023-03-16T22:50:19.748Z,100592.69
2023-03-16T22:52:49.381Z,100594.66
2023-03-16T22:55:23.087Z,100591.06
2023-03-16T22:57:51.737Z,100580.16
2023-03-16T23:00:28.907Z,100590.41
2023-03-16T23:02:58.127Z,100591.56
2023-03-16T23:05:33.879Z,100590.34
2023-03-16T23:08:06.211Z,100584.91
2023-03-16T23:10:34.641Z,100591.50
2023-03-16T23:13:20.285Z,100583.19
2023-03-16T23:15:49.425Z,100567.94
2023-03-16T23:18:21.267Z,100569.97
2023-03-16T23:20:49.759Z,100568.47
2023-03-16T23:23:18.066Z,100556.25
2023-03-16T23:25:48.369Z,100569.59
2023-03-16T23:28:23.585Z,100573.91
2023-03-16T23:30:52.091Z,100583.13
2023-03-16T23:33:22.107Z,100572.03
2023-03-16T23:35:50.607Z,100572.97
2023-03-16T23:38:20.597Z,100576.72
2023-03-16T23:40:50.094Z,100574.06
2023-03-16T23:43:24.101Z,100583.75
2023-03-16T23:45:52.366Z,100580.38
2023-03-16T23:48:21.076Z,100585.19
2023-03-16T23:50:54.774Z,100579.53
2023-03-16T23:53:24.363Z,100577.50
2023-03-16T23:55:52.946Z,100580.03
2023-03-16T23:58:22.449Z,100583.59
